Time;durP1;ratioP1;P1;durP2;ratioP2;P2;SDS_P1;SDS_P2;PMS_P1;PMS_P2;Temp;Humidity;BMP_temperature;BMP_pressure;BME280_temperature;BME280_humidity;BME280_pressure;Samples;Min_cycle;Max_cycle;Signal;HPM_P1;HPM_P2
2021/08/19 00:01:41;;;;;;;4.93;4.43;;;16.40;99.90;;;;;;4984420;28;20254;-76
2021/08/19 00:04:06;;;;;;;5.05;4.10;;;16.30;99.90;;;;;;4983560;28;20200;-75
2021/08/19 00:06:32;;;;;;;4.72;4.20;;;16.40;99.90;;;;;;4984477;28;20195;-75
2021/08/19 00:08:58;;;;;;;4.63;4.03;;;16.50;99.90;;;;;;4983822;28;20212;-76
2021/08/19 00:11:24;;;;;;;4.68;3.83;;;16.50;99.90;;;;;;4984128;28;20210;-76
2021/08/19 00:13:49;;;;;;;5.07;4.40;;;16.50;99.90;;;;;;4983913;28;20804;-76
2021/08/19 00:16:15;;;;;;;4.47;4.07;;;16.50;99.90;;;;;;4984045;28;20192;-75
2021/08/19 00:18:40;;;;;;;4.43;3.83;;;16.60;99.90;;;;;;4982542;28;20271;-76
2021/08/19 00:21:06;;;;;;;4.72;3.70;;;16.60;99.90;;;;;;4983917;28;20188;-76
2021/08/19 00:23:34;;;;;;;4.20;3.80;;;16.50;99.90;;;;;;4983754;28;20267;-75
2021/08/19 00:26:00;;;;;;;4.38;3.92;;;16.60;99.90;;;;;;4982371;28;20642;-76
2021/08/19 00:28:27;;;;;;;4.43;3.55;;;16.60;99.90;;;;;;4982657;28;20355;-76
2021/08/19 00:30:52;;;;;;;3.72;3.17;;;16.60;99.90;;;;;;4984085;28;20641;-76
2021/08/19 00:33:18;;;;;;;4.15;3.75;;;16.70;99.90;;;;;;4983389;28;20239;-76
2021/08/19 00:35:43;;;;;;;4.93;3.90;;;16.70;99.90;;;;;;4983971;28;20187;-76
2021/08/19 00:38:09;;;;;;;4.53;3.58;;;16.70;99.90;;;;;;4983610;28;20544;-76
2021/08/19 00:40:35;;;;;;;4.72;3.80;;;16.70;99.90;;;;;;4984138;28;20202;-75
2021/08/19 00:43:03;;;;;;;3.92;3.45;;;16.60;99.90;;;;;;4983117;28;20718;-76
2021/08/19 00:45:29;;;;;;;4.90;3.35;;;16.60;99.90;;;;;;4983617;28;21159;-76
2021/08/19 00:47:54;;;;;;;4.25;3.30;;;16.60;99.90;;;;;;4983630;28;20208;-76
2021/08/19 00:50:20;;;;;;;4.22;3.25;;;16.60;99.90;;;;;;4983719;28;20295;-75
2021/08/19 00:52:46;;;;;;;3.22;2.88;;;16.60;99.90;;;;;;4983704;28;20659;-77
2021/08/19 00:55:13;;;;;;;4.25;3.40;;;16.60;99.90;;;;;;4983265;28;20184;-76
2021/08/19 00:57:47;;;;;;;4.20;3.17;;;16.60;99.90;;;;;;4983696;28;20219;-76
2021/08/19 01:00:13;;;;;;;4.10;3.03;;;16.60;99.90;;;;;;4982474;28;20761;-76
2021/08/19 01:02:50;;;;;;;4.25;2.85;;;16.60;99.90;;;;;;4983735;28;20235;-76
2021/08/19 01:05:21;;;;;;;3.20;2.85;;;16.70;99.90;;;;;;4998547;28;20605;-75
2021/08/19 01:07:47;;;;;;;3.78;2.92;;;16.70;99.90;;;;;;4983871;28;20305;-74
2021/08/19 01:10:13;;;;;;;3.78;2.53;;;16.60;99.90;;;;;;4983586;28;20616;-75
2021/08/19 01:12:46;;;;;;;3.08;2.60;;;16.60;99.90;;;;;;4983837;28;20191;-75
2021/08/19 01:15:12;;;;;;;3.35;2.53;;;16.60;99.90;;;;;;4983205;28;20186;-77
2021/08/19 01:17:38;;;;;;;3.72;2.80;;;16.60;99.90;;;;;;4982548;28;20200;-75
2021/08/19 01:20:05;;;;;;;4.00;2.75;;;16.70;99.90;;;;;;4983488;28;20262;-76
2021/08/19 01:22:32;;;;;;;4.63;2.83;;;16.60;99.90;;;;;;4983655;28;20196;-76
2021/08/19 01:24:57;;;;;;;3.40;2.70;;;16.60;99.90;;;;;;4983375;28;20739;-76
2021/08/19 01:27:23;;;;;;;3.05;2.63;;;16.70;99.90;;;;;;4983474;28;20234;-75
2021/08/19 01:29:50;;;;;;;4.07;2.88;;;16.70;99.90;;;;;;4983499;28;20212;-75
2021/08/19 01:32:16;;;;;;;3.83;2.67;;;16.60;99.90;;;;;;4983796;28;20279;-75
2021/08/19 01:34:42;;;;;;;4.32;3.00;;;16.60;99.90;;;;;;4986300;28;20720;-76
2021/08/19 01:37:10;;;;;;;4.53;3.38;;;16.70;99.90;;;;;;4987458;28;20275;-76
2021/08/19 01:39:36;;;;;;;4.32;2.78;;;16.70;99.90;;;;;;4984643;28;20262;-76
2021/08/19 01:42:02;;;;;;;3.88;2.72;;;16.70;99.90;;;;;;4986976;28;20188;-75
2021/08/19 01:44:28;;;;;;;5.05;3.20;;;16.70;99.90;;;;;;4986610;28;20196;-76
2021/08/19 01:46:58;;;;;;;5.93;3.47;;;16.70;99.90;;;;;;4987032;28;20200;-77
2021/08/19 01:49:29;;;;;;;4.55;3.15;;;16.70;99.90;;;;;;4986368;28;20299;-75
2021/08/19 01:51:55;;;;;;;4.85;3.08;;;16.70;99.90;;;;;;4985850;28;20265;-76
2021/08/19 01:54:25;;;;;;;3.13;2.83;;;16.70;99.90;;;;;;4986269;28;20287;-75
2021/08/19 01:56:50;;;;;;;3.65;2.97;;;16.60;99.90;;;;;;4986697;28;20189;-75
2021/08/19 01:59:16;;;;;;;3.88;2.75;;;16.60;99.90;;;;;;4986056;28;20326;-76
2021/08/19 02:01:42;;;;;;;3.60;2.70;;;16.60;99.90;;;;;;4985426;28;20191;-76
2021/08/19 02:04:07;;;;;;;6.38;3.08;;;16.60;99.90;;;;;;4984633;28;20662;-76
2021/08/19 02:06:33;;;;;;;3.30;2.80;;;16.60;99.90;;;;;;4986715;28;20727;-75
2021/08/19 02:08:59;;;;;;;5.20;3.33;;;16.60;99.90;;;;;;4986228;28;20219;-76
2021/08/19 02:11:24;;;;;;;5.18;3.42;;;16.60;99.90;;;;;;4986443;28;21168;-76
2021/08/19 02:13:50;;;;;;;3.40;3.10;;;16.60;99.90;;;;;;4985897;28;20279;-76
2021/08/19 02:16:16;;;;;;;5.78;3.15;;;16.60;99.90;;;;;;4984726;28;20554;-76
2021/08/19 02:18:42;;;;;;;4.35;3.38;;;16.60;99.90;;;;;;4986109;28;20218;-76
2021/08/19 02:21:08;;;;;;;7.25;4.28;;;16.60;99.90;;;;;;4986138;28;20192;-76
2021/08/19 02:23:34;;;;;;;6.45;3.97;;;16.60;99.90;;;;;;4986194;28;20192;-76
2021/08/19 02:26:00;;;;;;;6.25;3.92;;;16.60;99.90;;;;;;4984653;28;20192;-76
2021/08/19 02:28:25;;;;;;;4.50;3.38;;;16.70;99.90;;;;;;4985866;28;20771;-74
2021/08/19 02:30:51;;;;;;;4.25;3.38;;;16.60;99.90;;;;;;4985961;28;20299;-77
2021/08/19 02:33:16;;;;;;;3.42;3.13;;;16.60;99.90;;;;;;4985206;28;20184;-76
2021/08/19 02:35:42;;;;;;;5.97;3.88;;;16.60;99.90;;;;;;4985790;28;20206;-77
2021/08/19 02:38:07;;;;;;;5.80;3.83;;;16.60;99.90;;;;;;4985666;28;20287;-76
2021/08/19 02:40:36;;;;;;;3.92;3.47;;;16.60;99.90;;;;;;4985824;28;20192;-75
2021/08/19 02:43:03;;;;;;;4.50;3.40;;;16.50;99.90;;;;;;4984371;28;20219;-76
2021/08/19 02:45:28;;;;;;;6.00;4.22;;;16.50;99.90;;;;;;4982950;28;20225;-76
2021/08/19 02:47:54;;;;;;;4.93;3.90;;;16.60;99.90;;;;;;4985529;28;20227;-76
2021/08/19 02:50:20;;;;;;;5.13;4.00;;;16.60;99.90;;;;;;4985391;28;20291;-76
2021/08/19 02:52:46;;;;;;;4.72;4.15;;;16.60;99.90;;;;;;4985807;28;20608;-76
2021/08/19 02:55:11;;;;;;;5.53;4.88;;;16.60;99.90;;;;;;4985064;28;20192;-75
2021/08/19 02:57:37;;;;;;;6.60;4.80;;;16.60;99.90;;;;;;4985685;28;20714;-74
2021/08/19 03:00:05;;;;;;;6.97;4.72;;;16.60;99.90;;;;;;4985131;28;21216;-76
2021/08/19 03:02:31;;;;;;;6.28;4.75;;;16.50;99.90;;;;;;4985161;28;20188;-75
2021/08/19 03:04:58;;;;;;;7.18;5.07;;;16.60;99.90;;;;;;4984957;28;20191;-76
2021/08/19 03:07:23;;;;;;;6.57;5.22;;;16.50;99.90;;;;;;4983702;28;20198;-75
2021/08/19 03:09:49;;;;;;;7.13;6.00;;;16.50;99.90;;;;;;4984445;28;20448;-77
2021/08/19 03:12:15;;;;;;;8.02;5.85;;;16.50;99.90;;;;;;4985580;28;20197;-76
2021/08/19 03:14:41;;;;;;;6.45;5.47;;;16.50;99.90;;;;;;4984527;28;20192;-76
2021/08/19 03:17:07;;;;;;;9.18;6.72;;;16.50;99.90;;;;;;4985341;28;20189;-76
2021/08/19 03:19:32;;;;;;;6.80;5.70;;;16.40;99.90;;;;;;4984554;28;20338;-76
2021/08/19 03:22:00;;;;;;;6.95;6.25;;;16.40;99.90;;;;;;4985210;28;20685;-76
2021/08/19 03:24:26;;;;;;;8.00;6.28;;;16.40;99.90;;;;;;4984506;28;20224;-76
2021/08/19 03:26:52;;;;;;;7.15;6.40;;;16.30;99.90;;;;;;4984868;28;20195;-76
2021/08/19 03:29:17;;;;;;;6.80;5.88;;;16.30;99.90;;;;;;4984607;28;20247;-76
2021/08/19 03:31:43;;;;;;;7.85;6.80;;;16.30;99.90;;;;;;4984879;28;20243;-76
2021/08/19 03:34:08;;;;;;;6.95;5.80;;;16.30;99.90;;;;;;4983161;28;20180;-76
2021/08/19 03:36:34;;;;;;;8.48;6.43;;;16.30;99.90;;;;;;4983757;28;20184;-76
2021/08/19 03:38:59;;;;;;;11.40;6.80;;;16.30;99.90;;;;;;4984533;28;20536;-76
2021/08/19 03:41:26;;;;;;;7.82;6.50;;;16.20;99.90;;;;;;4983588;28;20195;-76
2021/08/19 03:43:51;;;;;;;8.68;6.80;;;16.20;99.90;;;;;;4984027;28;20188;-76
2021/08/19 03:46:18;;;;;;;8.55;7.53;;;16.30;99.90;;;;;;4984441;28;20188;-75
2021/08/19 03:48:44;;;;;;;7.47;6.68;;;16.30;99.90;;;;;;4984502;28;20207;-75
2021/08/19 03:51:09;;;;;;;8.10;6.47;;;16.30;99.90;;;;;;4983119;28;20212;-76
2021/08/19 03:53:36;;;;;;;9.52;7.22;;;16.30;99.90;;;;;;4984234;28;20250;-75
2021/08/19 03:56:03;;;;;;;7.93;6.90;;;16.30;99.90;;;;;;4984173;28;20546;-75
2021/08/19 03:58:29;;;;;;;8.25;6.30;;;16.30;99.90;;;;;;4984291;28;20234;-76
2021/08/19 04:00:55;;;;;;;7.88;7.07;;;16.30;99.90;;;;;;4982487;28;20741;-74
2021/08/19 04:03:20;;;;;;;6.97;6.25;;;16.30;99.90;;;;;;4984169;28;20192;-76
2021/08/19 04:05:46;;;;;;;7.40;6.55;;;16.20;99.90;;;;;;4983719;28;20234;-75
2021/08/19 04:08:11;;;;;;;8.82;6.90;;;16.20;99.90;;;;;;4984342;28;20216;-76
2021/08/19 04:10:37;;;;;;;8.02;6.80;;;16.20;99.90;;;;;;4983829;28;20215;-75
2021/08/19 04:13:02;;;;;;;6.57;5.85;;;16.20;99.90;;;;;;4984046;28;20212;-75
2021/08/19 04:15:28;;;;;;;7.50;6.30;;;16.20;99.90;;;;;;4983641;28;20266;-76
2021/08/19 04:17:55;;;;;;;7.80;6.25;;;16.30;99.90;;;;;;4984266;28;20200;-75
2021/08/19 04:20:22;;;;;;;7.13;5.95;;;16.30;99.90;;;;;;4983701;28;20246;-76
2021/08/19 04:22:48;;;;;;;7.18;5.70;;;16.30;99.90;;;;;;4983828;28;20185;-76
2021/08/19 04:25:14;;;;;;;6.78;4.90;;;16.30;99.90;;;;;;4983300;28;20187;-74
2021/08/19 04:27:40;;;;;;;6.75;5.60;;;16.30;99.90;;;;;;4984317;28;20228;-77
2021/08/19 04:30:07;;;;;;;5.70;5.10;;;16.30;99.90;;;;;;4982847;28;20219;-76
2021/08/19 04:32:33;;;;;;;6.10;4.93;;;16.30;99.90;;;;;;4984356;28;20539;-76
2021/08/19 04:34:59;;;;;;;8.35;5.63;;;16.30;99.90;;;;;;4984017;28;20182;-75
2021/08/19 04:37:24;;;;;;;5.65;4.82;;;16.30;99.90;;;;;;4984771;28;20216;-77
2021/08/19 04:39:50;;;;;;;5.70;4.38;;;16.30;99.90;;;;;;4984005;28;20250;-76
2021/08/19 04:42:16;;;;;;;6.50;5.07;;;16.30;99.90;;;;;;4984349;28;20184;-76
2021/08/19 04:44:41;;;;;;;5.97;5.05;;;16.40;99.90;;;;;;4982942;28;20188;-76
2021/08/19 04:47:07;;;;;;;5.78;4.38;;;16.40;99.90;;;;;;4984041;28;20192;-76
2021/08/19 04:49:33;;;;;;;7.68;4.57;;;16.40;99.90;;;;;;4983552;28;20212;-75
2021/08/19 04:51:58;;;;;;;5.40;4.20;;;16.40;99.90;;;;;;4983949;28;20184;-76
2021/08/19 04:54:24;;;;;;;5.20;3.90;;;16.50;99.90;;;;;;4983241;28;21202;-76
2021/08/19 04:56:49;;;;;;;4.85;3.95;;;16.50;99.90;;;;;;4983967;28;20180;-76
2021/08/19 04:59:15;;;;;;;4.82;4.30;;;16.50;99.90;;;;;;4982824;28;20219;-74
2021/08/19 05:01:41;;;;;;;5.47;3.83;;;16.50;99.90;;;;;;4983759;28;20184;-74
2021/08/19 05:04:07;;;;;;;6.47;4.18;;;16.50;99.90;;;;;;4981674;28;21189;-76
2021/08/19 05:06:33;;;;;;;4.13;3.60;;;16.50;99.90;;;;;;4983899;28;20295;-76
2021/08/19 05:09:00;;;;;;;3.80;3.50;;;16.50;99.90;;;;;;4985700;28;20572;-76
2021/08/19 05:11:26;;;;;;;4.70;3.55;;;16.40;99.90;;;;;;4987483;28;20621;-76
2021/08/19 05:13:53;;;;;;;3.47;3.17;;;16.50;99.90;;;;;;4986986;28;20188;-76
2021/08/19 05:16:19;;;;;;;3.85;3.03;;;16.50;99.90;;;;;;4987386;28;20231;-75
2021/08/19 05:18:45;;;;;;;5.63;3.08;;;16.50;99.90;;;;;;4987143;28;20547;-76
2021/08/19 05:21:12;;;;;;;3.55;3.00;;;16.50;99.90;;;;;;4987289;28;20670;-76
2021/08/19 05:23:38;;;;;;;5.13;3.50;;;16.50;99.90;;;;;;4987083;28;20188;-75
2021/08/19 05:26:04;;;;;;;4.65;3.40;;;16.60;99.90;;;;;;4986761;28;20659;-76
2021/08/19 05:28:30;;;;;;;3.88;2.83;;;16.60;99.90;;;;;;4987109;28;20222;-76
2021/08/19 05:30:55;;;;;;;3.63;3.22;;;16.70;99.90;;;;;;4986749;28;20749;-75
2021/08/19 05:33:21;;;;;;;4.47;3.35;;;16.70;99.90;;;;;;4987053;28;20192;-76
2021/08/19 05:35:47;;;;;;;3.22;2.92;;;16.70;99.90;;;;;;4986632;28;20184;-76
2021/08/19 05:38:12;;;;;;;3.80;3.20;;;16.70;99.90;;;;;;4986930;28;20251;-76
2021/08/19 05:40:38;;;;;;;4.18;3.58;;;16.70;99.90;;;;;;4986607;28;20196;-76
2021/08/19 05:43:05;;;;;;;5.70;3.30;;;16.80;99.90;;;;;;4986829;28;20294;-75
2021/08/19 05:45:31;;;;;;;4.53;3.30;;;16.70;99.90;;;;;;4986621;28;20219;-76
2021/08/19 05:47:57;;;;;;;2.85;2.55;;;16.80;99.90;;;;;;4986512;28;20584;-75
2021/08/19 05:50:23;;;;;;;3.83;2.90;;;16.90;99.90;;;;;;4985242;28;20223;-76
2021/08/19 05:52:48;;;;;;;4.88;3.05;;;16.90;99.90;;;;;;4986804;28;20177;-76
2021/08/19 05:55:14;;;;;;;3.47;2.78;;;16.90;99.90;;;;;;4986039;28;20651;-76
2021/08/19 05:57:39;;;;;;;3.47;2.88;;;17.00;99.90;;;;;;4986664;28;20208;-76
2021/08/19 06:00:06;;;;;;;3.38;2.80;;;17.00;99.90;;;;;;4986462;28;20598;-76
2021/08/19 06:02:31;;;;;;;5.75;3.67;;;17.10;99.90;;;;;;4985277;28;20310;-76
2021/08/19 06:04:59;;;;;;;32.10;19.50;;;17.10;99.90;;;;;;4985904;28;20220;-76
2021/08/19 06:07:24;;;;;;;28.30;18.20;;;17.30;99.90;;;;;;4988905;28;20216;-77
2021/08/19 06:09:50;;;;;;;6.13;4.80;;;17.40;99.90;;;;;;4989437;28;20239;-78
2021/08/19 06:12:15;;;;;;;5.00;2.97;;;17.60;99.90;;;;;;4990131;28;20188;-79
2021/08/19 06:14:41;;;;;;;4.40;3.38;;;17.80;99.90;;;;;;4989624;28;20195;-80
2021/08/19 06:17:07;;;;;;;3.53;3.13;;;18.00;99.90;;;;;;4989522;28;20191;-76
2021/08/19 06:19:32;;;;;;;4.97;3.50;;;18.20;99.90;;;;;;4988912;28;20247;-78
2021/08/19 06:21:58;;;;;;;4.38;3.28;;;18.30;99.90;;;;;;4989720;28;20188;-79
2021/08/19 06:24:23;;;;;;;4.10;3.40;;;18.50;99.90;;;;;;4987197;28;20184;-75
2021/08/19 06:26:49;;;;;;;4.10;3.67;;;18.70;99.90;;;;;;4989222;28;20272;-76
2021/08/19 06:29:14;;;;;;;3.88;3.38;;;18.80;99.90;;;;;;4987062;28;20438;-78
2021/08/19 06:31:40;;;;;;;4.28;3.42;;;18.80;99.90;;;;;;4987736;28;20211;-79
2021/08/19 06:34:05;;;;;;;4.20;3.13;;;18.80;99.90;;;;;;4985888;28;20188;-75
2021/08/19 06:36:31;;;;;;;5.10;3.92;;;18.90;99.90;;;;;;4987895;28;20283;-77
2021/08/19 06:38:57;;;;;;;5.80;3.65;;;18.90;99.90;;;;;;4985427;28;20864;-78
2021/08/19 06:41:24;;;;;;;4.97;3.55;;;19.00;99.90;;;;;;4986322;28;20192;-76
2021/08/19 06:43:50;;;;;;;5.78;3.75;;;19.10;99.90;;;;;;4986265;28;20572;-77
2021/08/19 06:46:15;;;;;;;6.22;3.75;;;19.40;99.90;;;;;;4985957;28;20199;-77
2021/08/19 06:48:41;;;;;;;4.70;3.97;;;19.70;99.90;;;;;;4985298;28;20215;-78
2021/08/19 06:51:07;;;;;;;6.15;4.13;;;19.80;99.90;;;;;;4984600;28;20204;-78
2021/08/19 06:53:33;;;;;;;5.68;3.92;;;19.80;99.90;;;;;;4986153;28;20666;-77
2021/08/19 06:55:59;;;;;;;4.95;4.45;;;19.90;99.90;;;;;;4985705;28;20190;-78
2021/08/19 06:58:24;;;;;;;4.35;3.63;;;19.90;99.90;;;;;;4985811;28;20500;-76
2021/08/19 07:00:50;;;;;;;5.50;4.25;;;20.00;99.90;;;;;;4985868;28;20203;-78
2021/08/19 07:03:16;;;;;;;5.45;4.45;;;19.90;99.90;;;;;;4983938;28;20647;-76
2021/08/19 07:05:43;;;;;;;4.13;3.63;;;20.40;99.90;;;;;;4985369;28;20283;-78
2021/08/19 07:08:09;;;;;;;5.40;4.05;;;20.70;99.90;;;;;;4999874;28;20584;-77
2021/08/19 07:10:34;;;;;;;5.50;3.80;;;20.70;99.90;;;;;;4984820;28;20216;-77
2021/08/19 07:13:00;;;;;;;5.70;3.78;;;20.40;99.90;;;;;;4986242;28;20181;-78
2021/08/19 07:15:26;;;;;;;5.10;4.10;;;19.90;99.90;;;;;;4987411;28;20210;-78
2021/08/19 07:17:51;;;;;;;4.40;3.40;;;19.40;99.90;;;;;;4986694;28;20274;-77
2021/08/19 07:20:17;;;;;;;4.35;3.65;;;19.10;99.90;;;;;;4984819;28;20204;-77
2021/08/19 07:22:45;;;;;;;3.97;3.58;;;18.90;99.90;;;;;;4986959;28;20230;-78
2021/08/19 07:25:12;;;;;;;3.90;3.50;;;18.90;99.90;;;;;;4984219;28;20192;-77
2021/08/19 07:27:37;;;;;;;4.57;3.90;;;19.00;99.90;;;;;;4985544;28;20212;-77
2021/08/19 07:30:04;;;;;;;3.60;3.30;;;19.20;99.90;;;;;;4985704;28;20258;-78
2021/08/19 07:32:29;;;;;;;4.60;3.28;;;19.20;99.90;;;;;;4987345;28;20422;-76
2021/08/19 07:34:55;;;;;;;3.65;3.33;;;19.20;99.90;;;;;;4988273;28;20278;-77
2021/08/19 07:37:21;;;;;;;5.68;3.67;;;19.10;99.90;;;;;;4988308;28;20662;-78
2021/08/19 07:39:46;;;;;;;4.72;3.50;;;19.10;99.90;;;;;;4988291;28;20844;-76
2021/08/19 07:42:12;;;;;;;4.35;3.10;;;19.00;99.90;;;;;;4986539;28;20191;-76
2021/08/19 07:44:37;;;;;;;3.17;2.70;;;19.00;99.90;;;;;;4985829;28;20242;-76
2021/08/19 07:47:03;;;;;;;5.50;4.03;;;19.00;99.90;;;;;;4988176;28;20227;-78
2021/08/19 07:49:29;;;;;;;3.05;2.75;;;19.00;99.90;;;;;;4986539;28;20208;-78
2021/08/19 07:51:54;;;;;;;4.72;3.78;;;19.00;99.90;;;;;;4988052;28;20188;-78
2021/08/19 07:54:20;;;;;;;4.65;3.33;;;19.00;99.90;;;;;;4988253;28;20184;-76
2021/08/19 07:56:45;;;;;;;3.85;2.78;;;19.00;99.90;;;;;;4987985;28;20571;-78
2021/08/19 07:59:11;;;;;;;5.63;3.00;;;19.00;99.90;;;;;;4986321;28;20685;-78
2021/08/19 08:01:37;;;;;;;4.05;3.50;;;19.00;99.90;;;;;;4986702;28;20192;-77
2021/08/19 08:04:03;;;;;;;3.20;2.83;;;19.00;99.90;;;;;;4986163;28;20278;-78
2021/08/19 08:06:29;;;;;;;3.75;3.15;;;18.90;99.90;;;;;;4987815;28;20203;-77
2021/08/19 08:08:55;;;;;;;5.82;3.08;;;18.90;99.90;;;;;;4988591;28;20227;-76
2021/08/19 08:11:20;;;;;;;3.38;2.70;;;19.00;99.90;;;;;;4985965;28;20589;-76
2021/08/19 08:13:46;;;;;;;5.40;3.10;;;19.00;99.90;;;;;;4988120;28;20908;-79
2021/08/19 08:16:12;;;;;;;4.50;3.22;;;19.00;99.90;;;;;;4987969;28;20469;-77
2021/08/19 08:18:37;;;;;;;3.83;3.10;;;18.80;99.90;;;;;;4988583;28;20288;-78
2021/08/19 08:21:03;;;;;;;4.05;3.40;;;18.90;99.90;;;;;;4987091;28;20217;-77
2021/08/19 08:23:33;;;;;;;4.03;3.30;;;18.90;99.90;;;;;;4986640;28;20188;-77
2021/08/19 08:26:00;;;;;;;3.17;2.63;;;19.00;99.90;;;;;;4985103;28;20188;-79
2021/08/19 08:28:31;;;;;;;4.15;2.53;;;19.00;99.90;;;;;;4986438;28;20507;-79
2021/08/19 08:30:58;;;;;;;3.15;2.72;;;18.90;99.90;;;;;;4987611;28;20267;-76
2021/08/19 08:33:23;;;;;;;4.38;2.80;;;18.90;99.90;;;;;;4988211;28;20274;-77
2021/08/19 08:35:51;;;;;;;3.83;3.10;;;18.80;99.90;;;;;;4987073;28;21280;-79
2021/08/19 08:38:18;;;;;;;4.63;3.03;;;18.90;99.90;;;;;;4987437;28;20977;-78
2021/08/19 08:40:46;;;;;;;3.60;2.78;;;18.90;99.90;;;;;;4987673;28;20181;-76
2021/08/19 08:43:14;;;;;;;3.78;3.13;;;18.90;99.90;;;;;;4988811;28;20183;-78
2021/08/19 08:45:41;;;;;;;3.63;2.95;;;18.80;99.90;;;;;;4990622;28;20655;-78
2021/08/19 08:48:18;;;;;;;3.35;3.00;;;18.80;99.90;;;;;;4990060;28;20218;-77
2021/08/19 08:50:46;;;;;;;5.38;2.75;;;18.70;99.90;;;;;;4991428;28;20215;-77
2021/08/19 08:53:14;;;;;;;3.20;2.90;;;18.70;99.90;;;;;;4989428;28;20192;-78
2021/08/19 08:55:41;;;;;;;3.47;2.40;;;18.80;99.90;;;;;;4991433;28;20275;-77
2021/08/19 08:58:10;;;;;;;4.35;2.78;;;18.90;99.90;;;;;;4991426;28;20242;-78
2021/08/19 09:00:39;;;;;;;2.42;2.20;;;18.80;99.90;;;;;;4989273;28;20709;-76
2021/08/19 09:03:07;;;;;;;3.05;2.70;;;18.80;99.90;;;;;;4991352;28;20191;-76
2021/08/19 09:05:55;;;;;;;3.35;2.80;;;18.90;99.90;;;;;;4989269;28;20188;-77
2021/08/19 09:08:24;;;;;;;3.47;3.13;;;19.00;99.90;;;;;;4991510;28;20243;-79
2021/08/19 09:10:52;;;;;;;3.50;2.85;;;19.30;99.90;;;;;;4972997;28;20250;-78
2021/08/19 09:13:21;;;;;;;4.75;3.53;;;19.40;99.90;;;;;;4990840;28;20716;-76
2021/08/19 09:15:48;;;;;;;3.50;3.05;;;19.50;99.90;;;;;;4989346;28;20188;-79
2021/08/19 09:18:32;;;;;;;5.65;3.33;;;19.60;99.90;;;;;;4991575;28;20208;-77
2021/08/19 09:20:59;;;;;;;4.03;3.33;;;19.60;99.90;;;;;;4990529;28;20262;-76
2021/08/19 09:23:25;;;;;;;4.65;3.95;;;19.60;99.90;;;;;;4990876;28;20493;-78
2021/08/19 09:25:51;;;;;;;4.53;3.53;;;19.60;99.90;;;;;;4989053;28;20195;-77
2021/08/19 09:28:22;;;;;;;5.10;3.80;;;19.70;99.90;;;;;;4991218;28;20208;-78
2021/08/19 09:30:52;;;;;;;5.30;3.35;;;19.70;99.90;;;;;;4990666;28;20207;-75
2021/08/19 09:33:21;;;;;;;4.30;2.75;;;19.80;99.90;;;;;;4991310;28;20176;-76
2021/08/19 09:35:48;;;;;;;4.68;3.15;;;19.90;99.90;;;;;;4990289;28;20226;-76
2021/08/19 09:38:17;;;;;;;4.15;3.38;;;20.10;99.90;;;;;;5000461;28;20290;-78
2021/08/19 09:40:43;;;;;;;4.03;2.97;;;20.30;99.90;;;;;;4999661;28;20257;-76
2021/08/19 09:43:11;;;;;;;3.60;2.90;;;20.20;99.90;;;;;;5003678;28;20199;-76
2021/08/19 09:45:45;;;;;;;5.10;3.78;;;20.20;99.90;;;;;;5004044;28;20536;-75
2021/08/19 09:48:13;;;;;;;4.22;3.42;;;20.10;99.90;;;;;;5006503;28;20283;-77
2021/08/19 09:50:39;;;;;;;3.42;3.05;;;20.00;99.90;;;;;;5003483;28;20298;-79
2021/08/19 09:53:17;;;;;;;3.72;3.10;;;19.90;99.90;;;;;;5004251;28;20192;-76
2021/08/19 09:55:43;;;;;;;4.03;3.20;;;19.70;99.90;;;;;;5002231;28;20177;-75
2021/08/19 09:58:09;;;;;;;3.55;3.25;;;19.50;99.90;;;;;;4999310;28;20271;-76
2021/08/19 10:00:42;;;;;;;4.18;3.38;;;19.50;99.90;;;;;;4998093;28;20204;-75
2021/08/19 10:03:10;;;;;;;3.95;3.38;;;19.50;99.90;;;;;;4990421;28;20192;-76
2021/08/19 10:05:35;;;;;;;4.78;3.25;;;19.40;99.90;;;;;;4998823;28;20199;-75
2021/08/19 10:08:01;;;;;;;3.67;3.28;;;19.50;99.90;;;;;;5006342;28;20435;-76
2021/08/19 10:10:28;;;;;;;4.63;3.47;;;19.60;99.90;;;;;;5004790;28;20696;-77
2021/08/19 10:12:57;;;;;;;4.22;3.30;;;19.70;99.90;;;;;;5000272;28;20191;-78
2021/08/19 10:15:23;;;;;;;3.92;3.13;;;19.90;99.90;;;;;;4991086;28;20184;-76
2021/08/19 10:17:52;;;;;;;3.35;2.90;;;20.10;99.90;;;;;;4989729;28;20201;-78
2021/08/19 10:20:22;;;;;;;7.32;4.03;;;20.20;99.90;;;;;;4988972;28;21153;-77
2021/08/19 10:22:49;;;;;;;4.13;3.00;;;20.20;99.90;;;;;;4990166;28;20948;-78
2021/08/19 10:25:18;;;;;;;3.92;3.53;;;20.20;99.90;;;;;;4989481;28;20188;-77
2021/08/19 10:27:44;;;;;;;5.70;2.95;;;20.30;99.90;;;;;;4990859;28;20238;-78
2021/08/19 10:30:20;;;;;;;3.10;2.60;;;20.40;99.90;;;;;;4990087;28;20248;-77
2021/08/19 10:32:53;;;;;;;2.83;2.55;;;20.50;99.90;;;;;;4990278;28;20214;-77
2021/08/19 10:35:26;;;;;;;3.42;2.83;;;20.70;99.90;;;;;;4988499;28;20192;-78
2021/08/19 10:37:52;;;;;;;2.90;2.30;;;20.80;99.90;;;;;;4989536;28;20235;-79
2021/08/19 10:40:21;;;;;;;2.55;2.28;;;20.90;99.90;;;;;;4990493;28;20184;-78
2021/08/19 10:42:48;;;;;;;3.72;2.28;;;21.00;99.90;;;;;;4989831;28;20582;-78
2021/08/19 10:45:26;;;;;;;2.38;2.00;;;20.70;99.90;;;;;;4989289;28;20267;-77
2021/08/19 10:47:53;;;;;;;2.70;2.28;;;20.50;99.90;;;;;;4989084;28;20261;-78
2021/08/19 10:50:27;;;;;;;2.97;2.45;;;20.50;99.90;;;;;;4989402;28;20215;-79
2021/08/19 10:52:53;;;;;;;2.75;2.45;;;20.60;99.90;;;;;;4989650;28;20179;-78
2021/08/19 10:55:19;;;;;;;3.40;2.58;;;20.50;99.90;;;;;;4988785;28;20831;-76
2021/08/19 10:58:26;;;;;;;3.85;2.42;;;20.50;99.90;;;;;;4989702;28;20203;-79
2021/08/19 11:00:54;;;;;;;2.78;2.30;;;20.40;99.90;;;;;;4989711;28;20223;-78
2021/08/19 11:03:38;;;;;;;3.15;2.53;;;20.30;99.90;;;;;;4988354;28;20192;-79
2021/08/19 11:06:44;;;;;;;3.45;2.70;;;20.50;99.90;;;;;;4986699;28;20188;-78
2021/08/19 11:09:13;;;;;;;3.78;2.90;;;20.70;99.90;;;;;;4988987;28;20283;-78
2021/08/19 11:11:39;;;;;;;3.67;3.10;;;21.10;99.90;;;;;;4988878;28;20212;-78
2021/08/19 11:14:19;;;;;;;4.95;3.13;;;21.40;99.90;;;;;;4989164;28;20235;-76
2021/08/19 11:16:54;;;;;;;4.78;3.50;;;21.50;99.90;;;;;;4989149;28;20982;-75
2021/08/19 11:19:23;;;;;;;4.55;3.33;;;21.30;99.90;;;;;;4988496;28;20226;-79
2021/08/19 11:21:54;;;;;;;5.57;3.05;;;21.30;99.90;;;;;;4988805;28;20172;-79
2021/08/19 11:24:22;;;;;;;5.10;3.13;;;21.30;99.90;;;;;;4988190;28;20188;-79
2021/08/19 11:27:01;;;;;;;6.13;3.85;;;21.30;99.90;;;;;;4987296;28;20227;-78
2021/08/19 11:29:28;;;;;;;4.97;3.55;;;21.10;99.90;;;;;;4988652;28;20670;-77
2021/08/19 11:31:54;;;;;;;4.18;3.00;;;20.90;99.90;;;;;;4988630;28;21211;-78
2021/08/19 11:34:19;;;;;;;4.10;3.25;;;20.80;99.90;;;;;;4989132;28;20192;-78
2021/08/19 11:36:51;;;;;;;4.32;3.53;;;20.60;99.90;;;;;;4987626;28;20738;-76
2021/08/19 11:39:27;;;;;;;4.78;3.63;;;20.50;99.90;;;;;;4988820;28;20224;-76
2021/08/19 11:41:57;;;;;;;4.00;3.60;;;20.30;99.90;;;;;;4987928;28;20179;-79
2021/08/19 11:44:23;;;;;;;4.68;3.97;;;20.30;99.90;;;;;;4987750;28;20597;-75
2021/08/19 11:46:48;;;;;;;4.63;3.92;;;20.30;99.90;;;;;;4987061;28;20279;-78
2021/08/19 11:49:15;;;;;;;5.60;3.88;;;20.30;99.90;;;;;;4987658;28;20246;-77
2021/08/19 11:51:42;;;;;;;4.45;3.38;;;20.30;99.90;;;;;;4987675;28;20690;-78
2021/08/19 11:54:14;;;;;;;3.63;3.25;;;20.30;99.90;;;;;;4987539;28;20184;-78
2021/08/19 11:56:42;;;;;;;4.70;4.20;;;20.40;99.90;;;;;;4986135;28;20203;-78
2021/08/19 11:59:12;;;;;;;4.63;3.85;;;20.40;99.90;;;;;;4986882;28;20673;-77
2021/08/19 12:01:46;;;;;;;4.30;3.17;;;20.40;99.90;;;;;;4986427;28;20200;-77
2021/08/19 12:04:12;;;;;;;4.07;3.50;;;20.40;99.90;;;;;;4986621;28;20184;-78
2021/08/19 12:06:38;;;;;;;4.97;3.75;;;20.30;99.90;;;;;;4986576;28;20195;-77
2021/08/19 12:09:08;;;;;;;3.92;3.30;;;20.10;99.90;;;;;;4987147;28;20212;-78
2021/08/19 12:11:42;;;;;;;4.32;3.28;;;20.10;99.90;;;;;;4985538;28;20793;-75
2021/08/19 12:14:10;;;;;;;3.85;3.45;;;20.10;99.90;;;;;;4986893;28;20172;-79
2021/08/19 12:16:37;;;;;;;5.68;4.38;;;20.20;99.90;;;;;;4986387;28;20682;-76
2021/08/19 12:19:03;;;;;;;4.38;3.95;;;20.10;99.90;;;;;;4987855;28;20215;-78
2021/08/19 12:21:29;;;;;;;5.07;4.35;;;20.30;99.90;;;;;;4988519;28;20188;-77
2021/08/19 12:24:10;;;;;;;6.45;4.72;;;20.50;99.90;;;;;;4984964;28;20294;-80
2021/08/19 12:26:35;;;;;;;5.47;4.07;;;20.50;99.90;;;;;;4985317;28;21147;-77
2021/08/19 12:29:01;;;;;;;4.43;3.83;;;20.50;99.90;;;;;;4985837;28;20204;-77
2021/08/19 12:31:49;;;;;;;5.00;4.43;;;20.40;99.90;;;;;;4984534;28;20481;-77
2021/08/19 12:34:16;;;;;;;4.30;3.88;;;20.40;99.90;;;;;;4984793;28;20253;-76
2021/08/19 12:36:41;;;;;;;4.78;3.83;;;20.50;99.90;;;;;;4985264;28;20184;-77
2021/08/19 12:39:17;;;;;;;5.25;4.25;;;20.60;99.90;;;;;;4985098;28;20200;-77
2021/08/19 12:41:45;;;;;;;6.35;4.78;;;20.70;99.90;;;;;;4984750;28;20670;-76
2021/08/19 12:44:12;;;;;;;4.70;4.20;;;20.90;99.90;;;;;;4984805;28;20192;-77
2021/08/19 12:46:40;;;;;;;4.40;3.55;;;21.20;99.90;;;;;;4985490;28;20527;-75